This is the latest recevied weather packets stored in our database for station/object SQ9NFI-4. If no packets are shown the sender has not sent any weather packets the latest 10 day(s).
| Time | Temp. | Humidity | Pressure | Rain* | Wind** | Luminosity | Snow |
|---|---|---|---|---|---|---|---|
| 1778017477 | 11.67° C | 72% | 1008.1 hPa | 0 mm | - | 0 W/m² | - |
| 1778017177 | 11.67° C | 69% | 1008.1 hPa | 0 mm | - | 0 W/m² | - |
| 1778016877 | 11.67° C | 70% | 1008.1 hPa | 0 mm | - | 0 W/m² | - |
| 1778016577 | 11.67° C | 69% | 1008.1 hPa | 0 mm | - | 0 W/m² | - |
| 1778016277 | 11.67° C | 66% | 1008.5 hPa | 0 mm | - | 0 W/m² | - |
| 1778015977 | 11.67° C | 74% | 1008.5 hPa | 0 mm | - | 0 W/m² | - |
| 1778015677 | 12.22° C | 68% | 1008.5 hPa | 0 mm | - | 0 W/m² | - |
| 1778015377 | 12.22° C | 65% | 1008.5 hPa | 0 mm | - | 0 W/m² | - |
| 1778015077 | 12.22° C | 72% | 1008.5 hPa | 0 mm | - | 0 W/m² | - |
| 1778014777 | 12.22° C | 65% | 1008.5 hPa | 0 mm | - | 0 W/m² | - |
| 1778014477 | 12.78° C | 63% | 1008.5 hPa | 0 mm | - | 0 W/m² | - |
| 1778014177 | 12.78° C | 66% | 1008.5 hPa | 0 mm | - | 0 W/m² | - |
| 1778013877 | 12.78° C | 63% | 1008.5 hPa | 0 mm | - | 0 W/m² | - |
| 1778013577 | 12.78° C | 61% | 1008.5 hPa | 0 mm | - | 0 W/m² | - |
| 1778013277 | 12.78° C | 65% | 1008.5 hPa | 0 mm | - | 0 W/m² | - |
| 1778012977 | 12.78° C | 61% | 1008.5 hPa | 0 mm | - | 0 W/m² | - |
| 1778012677 | 12.78° C | 67% | 1008.5 hPa | 0 mm | - | 0 W/m² | - |
| 1778012377 | 12.78° C | 60% | 1008.5 hPa | 0 mm | - | 0 W/m² | - |
| 1778012077 | 13.33° C | 61% | 1008.5 hPa | 0 mm | - | 0 W/m² | - |
| 1778011777 | 13.33° C | 59% | 1008.5 hPa | 0 mm | - | 0 W/m² | - |
| 1778011477 | 13.33° C | 67% | 1008.5 hPa | 0 mm | - | 0 W/m² | - |
| 1778011177 | 13.33° C | 62% | 1008.5 hPa | 0 mm | - | 0 W/m² | - |
| 1778009377 | 14.44° C | 62% | 1008.1 hPa | 0 mm | - | 0 W/m² | - |
| 1778003677 | 22.78° C | 24% | 1007.8 hPa | 0 mm | - | 7 W/m² | - |
| 1778000377 | 26.11° C | 18% | 1007.8 hPa | 0 mm | - | 44 W/m² | - |
* Rain latest hour (hover to see other rain measurements)
** Current wind speed in m/s (hover to see current wind gust speed)